sensor_id;sensor_type;location;lat;lon;timestamp;pressure;altitude;pressure_sealevel;temperature
43292;BMP280;28754;47.700;7.924;2022-11-15T00:00:40;91189.13;;;10.96
43292;BMP280;28754;47.700;7.924;2022-11-15T00:03:45;91192.75;;;10.96
43292;BMP280;28754;47.700;7.924;2022-11-15T00:06:51;91181.97;;;10.94
43292;BMP280;28754;47.700;7.924;2022-11-15T00:09:56;91189.16;;;10.92
43292;BMP280;28754;47.700;7.924;2022-11-15T00:13:12;91190.69;;;10.93
43292;BMP280;28754;47.700;7.924;2022-11-15T00:16:17;91196.09;;;10.91
43292;BMP280;28754;47.700;7.924;2022-11-15T00:19:22;91202.72;;;10.92
43292;BMP280;28754;47.700;7.924;2022-11-15T00:22:34;91191.72;;;10.92
43292;BMP280;28754;47.700;7.924;2022-11-15T00:25:39;91194.28;;;10.92
43292;BMP280;28754;47.700;7.924;2022-11-15T00:28:45;91197.38;;;10.89
43292;BMP280;28754;47.700;7.924;2022-11-15T00:31:50;91184.81;;;10.92
43292;BMP280;28754;47.700;7.924;2022-11-15T00:34:55;91194.78;;;10.94
43292;BMP280;28754;47.700;7.924;2022-11-15T00:38:02;91183.50;;;10.95
43292;BMP280;28754;47.700;7.924;2022-11-15T00:41:07;91181.22;;;10.93
43292;BMP280;28754;47.700;7.924;2022-11-15T00:44:12;91170.69;;;10.95
43292;BMP280;28754;47.700;7.924;2022-11-15T00:47:18;91161.50;;;10.94
43292;BMP280;28754;47.700;7.924;2022-11-15T00:50:23;91153.81;;;10.94
43292;BMP280;28754;47.700;7.924;2022-11-15T00:53:29;91158.69;;;10.95
43292;BMP280;28754;47.700;7.924;2022-11-15T00:56:34;91146.09;;;10.98
43292;BMP280;28754;47.700;7.924;2022-11-15T00:59:40;91132.53;;;10.98
43292;BMP280;28754;47.700;7.924;2022-11-15T01:02:45;91133.56;;;10.92
43292;BMP280;28754;47.700;7.924;2022-11-15T01:05:50;91138.47;;;10.84
43292;BMP280;28754;47.700;7.924;2022-11-15T01:08:56;91141.81;;;10.84
43292;BMP280;28754;47.700;7.924;2022-11-15T01:12:01;91143.09;;;10.87
43292;BMP280;28754;47.700;7.924;2022-11-15T01:15:07;91143.31;;;10.90
43292;BMP280;28754;47.700;7.924;2022-11-15T01:18:12;91138.97;;;10.91
43292;BMP280;28754;47.700;7.924;2022-11-15T01:21:19;91144.09;;;10.91
43292;BMP280;28754;47.700;7.924;2022-11-15T01:24:25;91141.53;;;10.91
43292;BMP280;28754;47.700;7.924;2022-11-15T01:27:30;91138.97;;;10.91
43292;BMP280;28754;47.700;7.924;2022-11-15T01:30:36;91140.25;;;10.88
43292;BMP280;28754;47.700;7.924;2022-11-15T01:33:42;91134.44;;;10.78
43292;BMP280;28754;47.700;7.924;2022-11-15T01:36:47;91141.09;;;10.74
43292;BMP280;28754;47.700;7.924;2022-11-15T01:39:52;91134.72;;;10.71
43292;BMP280;28754;47.700;7.924;2022-11-15T01:42:58;91131.88;;;10.73
43292;BMP280;28754;47.700;7.924;2022-11-15T01:46:22;91122.16;;;10.70
43292;BMP280;28754;47.700;7.924;2022-11-15T01:49:33;91123.69;;;10.71
43292;BMP280;28754;47.700;7.924;2022-11-15T01:52:40;91112.66;;;10.75
43292;BMP280;28754;47.700;7.924;2022-11-15T01:55:47;91111.38;;;10.78
43292;BMP280;28754;47.700;7.924;2022-11-15T01:58:55;91106.75;;;10.80
43292;BMP280;28754;47.700;7.924;2022-11-15T02:02:01;91096.78;;;10.78
43292;BMP280;28754;47.700;7.924;2022-11-15T02:05:07;91101.91;;;10.78
43292;BMP280;28754;47.700;7.924;2022-11-15T02:08:13;91097.03;;;10.77
43292;BMP280;28754;47.700;7.924;2022-11-15T02:11:25;91093.94;;;10.80
43292;BMP280;28754;47.700;7.924;2022-11-15T02:14:31;91093.69;;;10.81
43292;BMP280;28754;47.700;7.924;2022-11-15T02:18:28;91098.59;;;10.78
43292;BMP280;28754;47.700;7.924;2022-11-15T02:25:29;91100.59;;;10.81
43292;BMP280;28754;47.700;7.924;2022-11-15T02:28:48;91096.75;;;10.83
43292;BMP280;28754;47.700;7.924;2022-11-15T02:32:21;91094.19;;;10.83
43292;BMP280;28754;47.700;7.924;2022-11-15T02:39:14;91074.16;;;10.90
43292;BMP280;28754;47.700;7.924;2022-11-15T02:42:28;91057.06;;;10.81
43292;BMP280;28754;47.700;7.924;2022-11-15T02:46:07;91067.34;;;10.71
43292;BMP280;28754;47.700;7.924;2022-11-15T02:49:14;91065.88;;;10.60
43292;BMP280;28754;47.700;7.924;2022-11-15T02:52:23;91071.00;;;10.60
43292;BMP280;28754;47.700;7.924;2022-11-15T02:55:41;91066.69;;;10.56
43292;BMP280;28754;47.700;7.924;2022-11-15T02:59:08;91063.38;;;10.45
43292;BMP280;28754;47.700;7.924;2022-11-15T03:02:54;91059.28;;;10.49
43292;BMP280;28754;47.700;7.924;2022-11-15T03:09:40;91054.63;;;10.56
43292;BMP280;28754;47.700;7.924;2022-11-15T03:19:53;91051.03;;;10.62
43292;BMP280;28754;47.700;7.924;2022-11-15T03:23:08;91050.53;;;10.60
43292;BMP280;28754;47.700;7.924;2022-11-15T03:26:17;91052.03;;;10.66
43292;BMP280;28754;47.700;7.924;2022-11-15T03:29:35;91043.59;;;10.65
43292;BMP280;28754;47.700;7.924;2022-11-15T03:32:53;91049.44;;;10.71
43292;BMP280;28754;47.700;7.924;2022-11-15T03:36:00;91048.38;;;10.77
43292;BMP280;28754;47.700;7.924;2022-11-15T03:39:08;91048.34;;;10.82
43292;BMP280;28754;47.700;7.924;2022-11-15T03:42:41;91046.28;;;10.84
43292;BMP280;28754;47.700;7.924;2022-11-15T03:45:56;91046.03;;;10.85
43292;BMP280;28754;47.700;7.924;2022-11-15T03:49:13;91045.78;;;10.82
43292;BMP280;28754;47.700;7.924;2022-11-15T03:52:21;91028.41;;;10.79
43292;BMP280;28754;47.700;7.924;2022-11-15T03:55:27;91042.47;;;10.81
43292;BMP280;28754;47.700;7.924;2022-11-15T03:58:32;91024.28;;;10.83
43292;BMP280;28754;47.700;7.924;2022-11-15T04:01:38;91026.84;;;10.83
43292;BMP280;28754;47.700;7.924;2022-11-15T04:04:43;91025.28;;;10.82
43292;BMP280;28754;47.700;7.924;2022-11-15T04:07:48;91036.03;;;10.84
43292;BMP280;28754;47.700;7.924;2022-11-15T04:10:54;91026.06;;;10.82
43292;BMP280;28754;47.700;7.924;2022-11-15T04:13:59;91028.41;;;10.79
43292;BMP280;28754;47.700;7.924;2022-11-15T04:17:05;91031.75;;;10.74
43292;BMP280;28754;47.700;7.924;2022-11-15T04:20:20;91024.41;;;10.63
43292;BMP280;28754;47.700;7.924;2022-11-15T04:23:44;91024.16;;;10.60
43292;BMP280;28754;47.700;7.924;2022-11-15T04:26:58;91017.28;;;10.55
43292;BMP280;28754;47.700;7.924;2022-11-15T04:30:05;91014.19;;;10.58
43292;BMP280;28754;47.700;7.924;2022-11-15T04:33:10;91015.19;;;10.62
43292;BMP280;28754;47.700;7.924;2022-11-15T04:36:16;91011.31;;;10.64
43292;BMP280;28754;47.700;7.924;2022-11-15T04:39:40;91005.41;;;10.69
43292;BMP280;28754;47.700;7.924;2022-11-15T04:42:46;91002.31;;;10.72
43292;BMP280;28754;47.700;7.924;2022-11-15T04:45:51;90995.94;;;10.69
43292;BMP280;28754;47.700;7.924;2022-11-15T04:48:56;91002.84;;;10.69
43292;BMP280;28754;47.700;7.924;2022-11-15T04:52:02;90998.22;;;10.71
43292;BMP280;28754;47.700;7.924;2022-11-15T04:55:10;91004.88;;;10.72
43292;BMP280;28754;47.700;7.924;2022-11-15T04:58:15;90993.88;;;10.71
43292;BMP280;28754;47.700;7.924;2022-11-15T05:01:43;90990.81;;;10.69
43292;BMP280;28754;47.700;7.924;2022-11-15T05:04:51;90984.63;;;10.75
43292;BMP280;28754;47.700;7.924;2022-11-15T05:07:56;90986.69;;;10.73
43292;BMP280;28754;47.700;7.924;2022-11-15T05:11:01;91004.88;;;10.72
43292;BMP280;28754;47.700;7.924;2022-11-15T05:14:07;90983.84;;;10.75
43292;BMP280;28754;47.700;7.924;2022-11-15T05:17:12;90989.72;;;10.75
43292;BMP280;28754;47.700;7.924;2022-11-15T05:20:18;90985.66;;;10.74
43292;BMP280;28754;47.700;7.924;2022-11-15T05:23:23;90980.28;;;10.71
43292;BMP280;28754;47.700;7.924;2022-11-15T05:26:28;90982.34;;;10.69
43292;BMP280;28754;47.700;7.924;2022-11-15T05:29:33;90970.06;;;10.71
43292;BMP280;28754;47.700;7.924;2022-11-15T05:32:39;90978.78;;;10.70
43292;BMP280;28754;47.700;7.924;2022-11-15T05:35:50;90970.56;;;10.73
43292;BMP280;28754;47.700;7.924;2022-11-15T05:38:59;90967.97;;;10.78
43292;BMP280;28754;47.700;7.924;2022-11-15T05:42:11;90966.69;;;10.80
43292;BMP280;28754;47.700;7.924;2022-11-15T05:45:16;90953.81;;;10.85
43292;BMP280;28754;47.700;7.924;2022-11-15T05:48:22;90967.13;;;10.87
43292;BMP280;28754;47.700;7.924;2022-11-15T05:51:29;90959.44;;;10.87
43292;BMP280;28754;47.700;7.924;2022-11-15T05:54:36;90958.41;;;10.88
43292;BMP280;28754;47.700;7.924;2022-11-15T05:57:42;90961.47;;;10.90
43292;BMP280;28754;47.700;7.924;2022-11-15T06:00:48;90960.69;;;10.90
43292;BMP280;28754;47.700;7.924;2022-11-15T06:03:53;90951.72;;;10.92
43292;BMP280;28754;47.700;7.924;2022-11-15T06:06:59;90951.44;;;10.94
43292;BMP280;28754;47.700;7.924;2022-11-15T06:10:05;90950.41;;;10.95
43292;BMP280;28754;47.700;7.924;2022-11-15T06:13:10;90951.44;;;10.94
43292;BMP280;28754;47.700;7.924;2022-11-15T06:16:16;90954.78;;;10.94
43292;BMP280;28754;47.700;7.924;2022-11-15T06:19:21;90953.25;;;10.93
43292;BMP280;28754;47.700;7.924;2022-11-15T06:22:26;90949.66;;;10.94
43292;BMP280;28754;47.700;7.924;2022-11-15T06:25:31;90952.00;;;10.91
43292;BMP280;28754;47.700;7.924;2022-11-15T06:28:37;90950.19;;;10.91
43292;BMP280;28754;47.700;7.924;2022-11-15T06:31:42;90955.31;;;10.91
43292;BMP280;28754;47.700;7.924;2022-11-15T06:34:47;90957.59;;;10.93
43292;BMP280;28754;47.700;7.924;2022-11-15T06:37:53;90953.75;;;10.95
43292;BMP280;28754;47.700;7.924;2022-11-15T06:41:08;90952.41;;;11.02
43292;BMP280;28754;47.700;7.924;2022-11-15T06:44:13;90946.97;;;11.09
43292;BMP280;28754;47.700;7.924;2022-11-15T06:47:18;90960.94;;;11.21
43292;BMP280;28754;47.700;7.924;2022-11-15T06:50:24;90957.81;;;11.29
43292;BMP280;28754;47.700;7.924;2022-11-15T06:53:31;90952.19;;;11.27
43292;BMP280;28754;47.700;7.924;2022-11-15T06:56:37;90946.56;;;11.25
43292;BMP280;28754;47.700;7.924;2022-11-15T06:59:42;90938.88;;;11.25
43292;BMP280;28754;47.700;7.924;2022-11-15T07:02:48;90941.44;;;11.25
43292;BMP280;28754;47.700;7.924;2022-11-15T07:05:55;90942.94;;;11.26
43292;BMP280;28754;47.700;7.924;2022-11-15T07:09:02;90947.31;;;11.26
43292;BMP280;28754;47.700;7.924;2022-11-15T07:12:08;90944.75;;;11.26
43292;BMP280;28754;47.700;7.924;2022-11-15T07:15:15;90929.66;;;11.24
43292;BMP280;28754;47.700;7.924;2022-11-15T07:18:20;90937.38;;;11.19
43292;BMP280;28754;47.700;7.924;2022-11-15T07:21:25;90929.19;;;11.17
43292;BMP280;28754;47.700;7.924;2022-11-15T07:24:31;90947.09;;;11.22
43292;BMP280;28754;47.700;7.924;2022-11-15T07:27:37;90936.31;;;11.25
43292;BMP280;28754;47.700;7.924;2022-11-15T07:30:42;90946.00;;;11.28
43292;BMP280;28754;47.700;7.924;2022-11-15T07:33:47;90943.94;;;11.30
43292;BMP280;28754;47.700;7.924;2022-11-15T07:36:53;90943.38;;;11.33
43292;BMP280;28754;47.700;7.924;2022-11-15T07:39:58;90945.94;;;11.33
43292;BMP280;28754;47.700;7.924;2022-11-15T07:43:07;90947.25;;;11.30
43292;BMP280;28754;47.700;7.924;2022-11-15T07:46:12;90948.03;;;11.31
43292;BMP280;28754;47.700;7.924;2022-11-15T07:49:17;90947.00;;;11.32
43292;BMP280;28754;47.700;7.924;2022-11-15T07:52:23;90945.69;;;11.34
43292;BMP280;28754;47.700;7.924;2022-11-15T07:55:28;90945.44;;;11.36
43292;BMP280;28754;47.700;7.924;2022-11-15T07:58:35;90943.13;;;11.34
43292;BMP280;28754;47.700;7.924;2022-11-15T08:01:40;90948.00;;;11.36
43292;BMP280;28754;47.700;7.924;2022-11-15T08:04:45;90944.88;;;11.39
43292;BMP280;28754;47.700;7.924;2022-11-15T08:07:50;90946.94;;;11.37
43292;BMP280;28754;47.700;7.924;2022-11-15T08:10:58;90945.69;;;11.34
43292;BMP280;28754;47.700;7.924;2022-11-15T08:14:03;90938.06;;;11.30
43292;BMP280;28754;47.700;7.924;2022-11-15T08:17:08;90942.13;;;11.30
43292;BMP280;28754;47.700;7.924;2022-11-15T08:20:14;90936.81;;;11.27
43292;BMP280;28754;47.700;7.924;2022-11-15T08:23:19;90934.75;;;11.29
43292;BMP280;28754;47.700;7.924;2022-11-15T08:26:25;90938.25;;;11.33
43292;BMP280;28754;47.700;7.924;2022-11-15T08:29:33;90944.88;;;11.39
43292;BMP280;28754;47.700;7.924;2022-11-15T08:32:39;90940.78;;;11.43
43292;BMP280;28754;47.700;7.924;2022-11-15T08:35:44;90945.84;;;11.48
43292;BMP280;28754;47.700;7.924;2022-11-15T08:38:50;90950.44;;;11.51
43292;BMP280;28754;47.700;7.924;2022-11-15T08:41:55;90940.19;;;11.51
43292;BMP280;28754;47.700;7.924;2022-11-15T08:45:00;90934.00;;;11.52
43292;BMP280;28754;47.700;7.924;2022-11-15T08:48:05;90939.63;;;11.54
43292;BMP280;28754;47.700;7.924;2022-11-15T08:51:11;90941.63;;;11.57
43292;BMP280;28754;47.700;7.924;2022-11-15T08:54:16;90930.63;;;11.56
43292;BMP280;28754;47.700;7.924;2022-11-15T08:57:22;90926.81;;;11.54
43292;BMP280;28754;47.700;7.924;2022-11-15T09:00:27;90930.41;;;11.53
43292;BMP280;28754;47.700;7.924;2022-11-15T09:03:33;90924.84;;;11.46
43292;BMP280;28754;47.700;7.924;2022-11-15T09:06:38;90928.94;;;11.42
43292;BMP280;28754;47.700;7.924;2022-11-15T09:09:43;90926.66;;;11.40
43292;BMP280;28754;47.700;7.924;2022-11-15T09:12:48;90919.78;;;11.36
43292;BMP280;28754;47.700;7.924;2022-11-15T09:15:58;90932.56;;;11.41
43292;BMP280;28754;47.700;7.924;2022-11-15T09:19:04;90925.88;;;11.45
43292;BMP280;28754;47.700;7.924;2022-11-15T09:22:09;90920.94;;;11.48
43292;BMP280;28754;47.700;7.924;2022-11-15T09:25:15;90927.38;;;11.51
43292;BMP280;28754;47.700;7.924;2022-11-15T09:28:20;90913.75;;;11.50
43292;BMP280;28754;47.700;7.924;2022-11-15T09:31:26;90928.81;;;11.57
43292;BMP280;28754;47.700;7.924;2022-11-15T09:34:31;90923.34;;;11.63
43292;BMP280;28754;47.700;7.924;2022-11-15T09:37:37;90919.97;;;11.67
43292;BMP280;28754;47.700;7.924;2022-11-15T09:40:42;90915.34;;;11.69
43292;BMP280;28754;47.700;7.924;2022-11-15T09:50:55;90914.31;;;11.70
43292;BMP280;28754;47.700;7.924;2022-11-15T09:54:03;90918.69;;;11.70
43292;BMP280;28754;47.700;7.924;2022-11-15T09:56:50;90915.97;;;11.62
43292;BMP280;28754;47.700;7.924;2022-11-15T10:00:01;90910.59;;;11.58
43292;BMP280;28754;47.700;7.924;2022-11-15T10:06:05;90913.56;;;11.47
43292;BMP280;28754;47.700;7.924;2022-11-15T10:09:09;90918.19;;;11.45
43292;BMP280;28754;47.700;7.924;2022-11-15T10:11:59;90930.44;;;11.48
43292;BMP280;28754;47.700;7.924;2022-11-15T10:14:49;90924.81;;;11.51
43292;BMP280;28754;47.700;7.924;2022-11-15T10:18:04;90928.94;;;11.47
43292;BMP280;28754;47.700;7.924;2022-11-15T10:20:59;90925.13;;;11.44
43292;BMP280;28754;47.700;7.924;2022-11-15T10:23:46;90924.06;;;11.45
43292;BMP280;28754;47.700;7.924;2022-11-15T10:26:32;90921.50;;;11.45
43292;BMP280;28754;47.700;7.924;2022-11-15T10:29:21;90916.13;;;11.42
43292;BMP280;28754;47.700;7.924;2022-11-15T10:32:10;90911.06;;;11.37
43292;BMP280;28754;47.700;7.924;2022-11-15T10:34:57;90911.13;;;11.32
43292;BMP280;28754;47.700;7.924;2022-11-15T10:37:43;90908.63;;;11.27
43292;BMP280;28754;47.700;7.924;2022-11-15T10:40:30;90912.44;;;11.30
43292;BMP280;28754;47.700;7.924;2022-11-15T10:43:18;90901.44;;;11.29
43292;BMP280;28754;47.700;7.924;2022-11-15T10:46:21;90886.25;;;11.32
43292;BMP280;28754;47.700;7.924;2022-11-15T10:49:19;90879.75;;;11.45
43292;BMP280;28754;47.700;7.924;2022-11-15T10:52:18;90871.97;;;11.50
43292;BMP280;28754;47.700;7.924;2022-11-15T10:55:25;90871.00;;;11.46
43292;BMP280;28754;47.700;7.924;2022-11-15T10:58:35;90858.16;;;11.51
43292;BMP280;28754;47.700;7.924;2022-11-15T11:01:25;90849.28;;;11.62
43292;BMP280;28754;47.700;7.924;2022-11-15T11:04:12;90847.63;;;11.70
43292;BMP280;28754;47.700;7.924;2022-11-15T11:07:00;90832.66;;;11.77
43292;BMP280;28754;47.700;7.924;2022-11-15T11:10:02;90829.06;;;11.78
43292;BMP280;28754;47.700;7.924;2022-11-15T11:12:49;90830.31;;;11.81
43292;BMP280;28754;47.700;7.924;2022-11-15T11:15:36;90821.97;;;11.89
43292;BMP280;28754;47.700;7.924;2022-11-15T11:18:34;90829.16;;;11.92
43292;BMP280;28754;47.700;7.924;2022-11-15T11:24:43;90822.91;;;11.98
43292;BMP280;28754;47.700;7.924;2022-11-15T11:28:05;90817.44;;;12.04
43292;BMP280;28754;47.700;7.924;2022-11-15T11:31:04;90804.53;;;12.09
43292;BMP280;28754;47.700;7.924;2022-11-15T11:34:26;90802.63;;;12.14
43292;BMP280;28754;47.700;7.924;2022-11-15T11:37:49;90789.16;;;12.22
43292;BMP280;28754;47.700;7.924;2022-11-15T11:41:10;90779.31;;;12.29
43292;BMP280;28754;47.700;7.924;2022-11-15T11:47:39;90773.06;;;12.35
43292;BMP280;28754;47.700;7.924;2022-11-15T11:50:28;90767.69;;;12.32
43292;BMP280;28754;47.700;7.924;2022-11-15T11:53:55;90770.94;;;12.24
43292;BMP280;28754;47.700;7.924;2022-11-15T11:56:45;90762.19;;;12.25
43292;BMP280;28754;47.700;7.924;2022-11-15T11:59:49;90762.38;;;12.28
43292;BMP280;28754;47.700;7.924;2022-11-15T12:02:43;90759.72;;;12.33
43292;BMP280;28754;47.700;7.924;2022-11-15T12:05:41;90746.25;;;12.41
43292;BMP280;28754;47.700;7.924;2022-11-15T12:08:52;90745.69;;;12.44
43292;BMP280;28754;47.700;7.924;2022-11-15T12:11:58;90745.41;;;12.45
43292;BMP280;28754;47.700;7.924;2022-11-15T12:17:57;90736.25;;;12.39
43292;BMP280;28754;47.700;7.924;2022-11-15T12:21:05;90731.81;;;12.45
43292;BMP280;28754;47.700;7.924;2022-11-15T12:30:21;90732.00;;;12.48
43292;BMP280;28754;47.700;7.924;2022-11-15T12:33:34;90730.75;;;12.46
43292;BMP280;28754;47.700;7.924;2022-11-15T12:39:10;90729.69;;;12.33
43292;BMP280;28754;47.700;7.924;2022-11-15T12:45:46;90712.63;;;12.11
43292;BMP280;28754;47.700;7.924;2022-11-15T12:57:32;90691.97;;;12.02
43292;BMP280;28754;47.700;7.924;2022-11-15T13:03:20;90695.78;;;12.05
43292;BMP280;28754;47.700;7.924;2022-11-15T13:06:09;90677.63;;;12.01
43292;BMP280;28754;47.700;7.924;2022-11-15T13:21:23;90668.03;;;11.94
43292;BMP280;28754;47.700;7.924;2022-11-15T13:24:28;90659.84;;;11.92
43292;BMP280;28754;47.700;7.924;2022-11-15T13:27:18;90663.72;;;11.89
43292;BMP280;28754;47.700;7.924;2022-11-15T13:30:14;90659.16;;;11.86
43292;BMP280;28754;47.700;7.924;2022-11-15T13:33:23;90666.66;;;11.83
43292;BMP280;28754;47.700;7.924;2022-11-15T13:36:22;90640.81;;;11.79
43292;BMP280;28754;47.700;7.924;2022-11-15T13:39:28;90644.97;;;11.75
43292;BMP280;28754;47.700;7.924;2022-11-15T13:42:20;90643.03;;;11.67
43292;BMP280;28754;47.700;7.924;2022-11-15T13:45:15;90638.06;;;11.58
43292;BMP280;28754;47.700;7.924;2022-11-15T13:48:03;90650.00;;;11.49
43292;BMP280;28754;47.700;7.924;2022-11-15T13:50:50;90638.84;;;11.40
43292;BMP280;28754;47.700;7.924;2022-11-15T13:53:40;90640.47;;;11.31
43292;BMP280;28754;47.700;7.924;2022-11-15T13:56:30;90635.66;;;11.30
43292;BMP280;28754;47.700;7.924;2022-11-15T13:59:30;90624.22;;;11.22
43292;BMP280;28754;47.700;7.924;2022-11-15T14:02:28;90619.44;;;11.16
43292;BMP280;28754;47.700;7.924;2022-11-15T14:05:24;90631.00;;;11.13
43292;BMP280;28754;47.700;7.924;2022-11-15T14:11:17;90619.31;;;11.07
43292;BMP280;28754;47.700;7.924;2022-11-15T14:16:59;90616.69;;;10.94
43292;BMP280;28754;47.700;7.924;2022-11-15T14:19:46;90630.81;;;10.92
43292;BMP280;28754;47.700;7.924;2022-11-15T14:22:33;90624.22;;;10.86
43292;BMP280;28754;47.700;7.924;2022-11-15T14:25:23;90618.28;;;10.90
43292;BMP280;28754;47.700;7.924;2022-11-15T14:28:31;90624.19;;;10.91
43292;BMP280;28754;47.700;7.924;2022-11-15T14:31:20;90610.59;;;10.90
43292;BMP280;28754;47.700;7.924;2022-11-15T14:34:08;90605.28;;;10.87
43292;BMP280;28754;47.700;7.924;2022-11-15T14:36:55;90615.03;;;10.85
43292;BMP280;28754;47.700;7.924;2022-11-15T14:39:42;90610.94;;;10.84
43292;BMP280;28754;47.700;7.924;2022-11-15T14:42:28;90604.84;;;10.80
43292;BMP280;28754;47.700;7.924;2022-11-15T14:45:21;90597.44;;;10.78
43292;BMP280;28754;47.700;7.924;2022-11-15T14:48:08;90597.09;;;10.85
43292;BMP280;28754;47.700;7.924;2022-11-15T14:50:56;90585.81;;;10.86
43292;BMP280;28754;47.700;7.924;2022-11-15T14:53:44;90572.47;;;10.89
43292;BMP280;28754;47.700;7.924;2022-11-15T14:56:31;90557.28;;;10.92
43292;BMP280;28754;47.700;7.924;2022-11-15T14:59:18;90573.41;;;10.93
43292;BMP280;28754;47.700;7.924;2022-11-15T15:02:17;90561.44;;;10.88
43292;BMP280;28754;47.700;7.924;2022-11-15T15:05:46;90569.19;;;10.83
43292;BMP280;28754;47.700;7.924;2022-11-15T15:08:32;90563.94;;;10.75
43292;BMP280;28754;47.700;7.924;2022-11-15T15:11:29;90554.31;;;10.67
43292;BMP280;28754;47.700;7.924;2022-11-15T15:14:16;90548.50;;;10.62
43292;BMP280;28754;47.700;7.924;2022-11-15T15:17:03;90543.25;;;10.53
43292;BMP280;28754;47.700;7.924;2022-11-15T15:19:51;90535.09;;;10.51
43292;BMP280;28754;47.700;7.924;2022-11-15T15:22:38;90526.38;;;10.52
43292;BMP280;28754;47.700;7.924;2022-11-15T15:25:33;90536.06;;;10.55
43292;BMP280;28754;47.700;7.924;2022-11-15T15:28:21;90529.91;;;10.56
43292;BMP280;28754;47.700;7.924;2022-11-15T15:31:09;90529.13;;;10.56
43292;BMP280;28754;47.700;7.924;2022-11-15T15:33:56;90524.03;;;10.56
43292;BMP280;28754;47.700;7.924;2022-11-15T15:36:42;90524.25;;;10.59
43292;BMP280;28754;47.700;7.924;2022-11-15T15:39:29;90524.16;;;10.64
43292;BMP280;28754;47.700;7.924;2022-11-15T15:42:16;90519.53;;;10.66
43292;BMP280;28754;47.700;7.924;2022-11-15T15:45:03;90514.69;;;10.64
43292;BMP280;28754;47.700;7.924;2022-11-15T15:47:50;90511.44;;;10.59
43292;BMP280;28754;47.700;7.924;2022-11-15T15:50:38;90506.31;;;10.59
43292;BMP280;28754;47.700;7.924;2022-11-15T15:53:25;90506.31;;;10.59
43292;BMP280;28754;47.700;7.924;2022-11-15T15:56:11;90502.31;;;10.53
43292;BMP280;28754;47.700;7.924;2022-11-15T15:58:58;90492.81;;;10.54
43292;BMP280;28754;47.700;7.924;2022-11-15T16:01:45;90503.06;;;10.54
43292;BMP280;28754;47.700;7.924;2022-11-15T16:04:31;90496.13;;;10.54
43292;BMP280;28754;47.700;7.924;2022-11-15T16:07:22;90498.16;;;10.57
43292;BMP280;28754;47.700;7.924;2022-11-15T16:10:24;90506.81;;;10.61
43292;BMP280;28754;47.700;7.924;2022-11-15T16:13:14;90492.47;;;10.60
43292;BMP280;28754;47.700;7.924;2022-11-15T16:16:01;90486.88;;;10.58
43292;BMP280;28754;47.700;7.924;2022-11-15T16:18:48;90483.81;;;10.56
43292;BMP280;28754;47.700;7.924;2022-11-15T16:21:34;90488.41;;;10.59
43292;BMP280;28754;47.700;7.924;2022-11-15T16:24:22;90486.34;;;10.61
43292;BMP280;28754;47.700;7.924;2022-11-15T16:27:18;90478.09;;;10.64
43292;BMP280;28754;47.700;7.924;2022-11-15T16:30:15;90479.91;;;10.63
43292;BMP280;28754;47.700;7.924;2022-11-15T16:33:02;90468.13;;;10.62
43292;BMP280;28754;47.700;7.924;2022-11-15T16:35:49;90470.19;;;10.61
43292;BMP280;28754;47.700;7.924;2022-11-15T16:38:35;90471.25;;;10.60
43292;BMP280;28754;47.700;7.924;2022-11-15T16:41:22;90458.72;;;10.58
43292;BMP280;28754;47.700;7.924;2022-11-15T16:44:09;90473.09;;;10.54
43292;BMP280;28754;47.700;7.924;2022-11-15T16:46:55;90459.06;;;10.52
43292;BMP280;28754;47.700;7.924;2022-11-15T16:49:43;90460.78;;;10.56
43292;BMP280;28754;47.700;7.924;2022-11-15T16:52:30;90454.16;;;10.55
43292;BMP280;28754;47.700;7.924;2022-11-15T16:55:22;90456.25;;;10.53
43292;BMP280;28754;47.700;7.924;2022-11-15T16:58:09;90460.38;;;10.49
43292;BMP280;28754;47.700;7.924;2022-11-15T17:00:56;90451.38;;;10.52
43292;BMP280;28754;47.700;7.924;2022-11-15T17:04:06;90449.59;;;10.52
43292;BMP280;28754;47.700;7.924;2022-11-15T17:07:09;90439.50;;;10.42
43292;BMP280;28754;47.700;7.924;2022-11-15T17:09:55;90447.06;;;10.52
43292;BMP280;28754;47.700;7.924;2022-11-15T17:12:42;90441.63;;;10.54
43292;BMP280;28754;47.700;7.924;2022-11-15T17:15:29;90441.09;;;10.57
43292;BMP280;28754;47.700;7.924;2022-11-15T17:18:16;90432.16;;;10.54
43292;BMP280;28754;47.700;7.924;2022-11-15T17:21:20;90428.66;;;10.50
43292;BMP280;28754;47.700;7.924;2022-11-15T17:24:07;90423.06;;;10.48
43292;BMP280;28754;47.700;7.924;2022-11-15T17:27:01;90431.22;;;10.50
43292;BMP280;28754;47.700;7.924;2022-11-15T17:29:48;90424.28;;;10.51
43292;BMP280;28754;47.700;7.924;2022-11-15T17:32:38;90430.06;;;10.56
43292;BMP280;28754;47.700;7.924;2022-11-15T17:35:37;90420.97;;;10.50
43292;BMP280;28754;47.700;7.924;2022-11-15T17:38:28;90426.38;;;10.49
43292;BMP280;28754;47.700;7.924;2022-11-15T17:41:18;90426.84;;;10.51
43292;BMP280;28754;47.700;7.924;2022-11-15T17:44:06;90413.56;;;10.49
43292;BMP280;28754;47.700;7.924;2022-11-15T17:47:09;90404.28;;;10.53
43292;BMP280;28754;47.700;7.924;2022-11-15T17:50:24;90404.97;;;10.58
43292;BMP280;28754;47.700;7.924;2022-11-15T17:53:13;90411.81;;;10.62
43292;BMP280;28754;47.700;7.924;2022-11-15T17:56:09;90412.28;;;10.64
43292;BMP280;28754;47.700;7.924;2022-11-15T17:58:58;90407.94;;;10.65
43292;BMP280;28754;47.700;7.924;2022-11-15T18:01:45;90401.78;;;10.66
43292;BMP280;28754;47.700;7.924;2022-11-15T18:04:34;90404.81;;;10.68
43292;BMP280;28754;47.700;7.924;2022-11-15T18:07:21;90399.13;;;10.71
43292;BMP280;28754;47.700;7.924;2022-11-15T18:10:08;90396.28;;;10.72
43292;BMP280;28754;47.700;7.924;2022-11-15T18:12:55;90391.66;;;10.74
43292;BMP280;28754;47.700;7.924;2022-11-15T18:15:52;90378.38;;;10.72
43292;BMP280;28754;47.700;7.924;2022-11-15T18:18:40;90379.69;;;10.70
43292;BMP280;28754;47.700;7.924;2022-11-15T18:21:29;90372.28;;;10.68
43292;BMP280;28754;47.700;7.924;2022-11-15T18:24:36;90370.50;;;10.69
43292;BMP280;28754;47.700;7.924;2022-11-15T18:27:24;90360.81;;;10.66
43292;BMP280;28754;47.700;7.924;2022-11-15T18:30:11;90363.09;;;10.67
43292;BMP280;28754;47.700;7.924;2022-11-15T18:33:01;90367.00;;;10.65
43292;BMP280;28754;47.700;7.924;2022-11-15T18:35:47;90370.00;;;10.67
43292;BMP280;28754;47.700;7.924;2022-11-15T18:38:34;90371.69;;;10.58
43292;BMP280;28754;47.700;7.924;2022-11-15T18:41:22;90376.91;;;10.53
43292;BMP280;28754;47.700;7.924;2022-11-15T18:44:17;90370.53;;;10.51